sensor_id;sensor_type;location;lat;lon;timestamp;P1;durP1;ratioP1;P2;durP2;ratioP2
35128;SDS011;21301;43.626;10.580;2022-10-16T00:01:08;19.33;;;11.02;;
35128;SDS011;21301;43.626;10.580;2022-10-16T00:03:36;18.55;;;9.63;;
35128;SDS011;21301;43.626;10.580;2022-10-16T00:06:03;20.95;;;10.43;;
35128;SDS011;21301;43.626;10.580;2022-10-16T00:08:30;13.45;;;7.88;;
35128;SDS011;21301;43.626;10.580;2022-10-16T00:10:59;21.88;;;11.57;;
35128;SDS011;21301;43.626;10.580;2022-10-16T00:13:27;22.13;;;10.63;;
35128;SDS011;21301;43.626;10.580;2022-10-16T00:15:54;20.08;;;9.98;;
35128;SDS011;21301;43.626;10.580;2022-10-16T00:18:21;31.48;;;15.88;;
35128;SDS011;21301;43.626;10.580;2022-10-16T00:20:47;16.17;;;8.75;;
35128;SDS011;21301;43.626;10.580;2022-10-16T00:23:13;14.43;;;7.75;;
35128;SDS011;21301;43.626;10.580;2022-10-16T00:25:39;19.08;;;10.77;;
35128;SDS011;21301;43.626;10.580;2022-10-16T00:28:05;13.73;;;8.32;;
35128;SDS011;21301;43.626;10.580;2022-10-16T00:30:30;16.98;;;9.73;;
35128;SDS011;21301;43.626;10.580;2022-10-16T00:32:56;21.58;;;9.63;;
35128;SDS011;21301;43.626;10.580;2022-10-16T00:35:22;17.38;;;8.48;;
35128;SDS011;21301;43.626;10.580;2022-10-16T00:37:48;18.23;;;10.38;;
35128;SDS011;21301;43.626;10.580;2022-10-16T00:40:14;12.80;;;7.53;;
35128;SDS011;21301;43.626;10.580;2022-10-16T00:42:40;15.95;;;9.88;;
35128;SDS011;21301;43.626;10.580;2022-10-16T00:45:06;12.02;;;7.53;;
35128;SDS011;21301;43.626;10.580;2022-10-16T00:47:35;11.93;;;7.00;;
35128;SDS011;21301;43.626;10.580;2022-10-16T00:50:17;18.95;;;8.13;;
35128;SDS011;21301;43.626;10.580;2022-10-16T00:52:49;18.35;;;8.48;;
35128;SDS011;21301;43.626;10.580;2022-10-16T00:55:16;15.57;;;8.55;;
35128;SDS011;21301;43.626;10.580;2022-10-16T00:57:43;12.57;;;7.25;;
35128;SDS011;21301;43.626;10.580;2022-10-16T01:00:10;12.20;;;7.15;;
35128;SDS011;21301;43.626;10.580;2022-10-16T01:02:38;14.48;;;7.60;;
35128;SDS011;21301;43.626;10.580;2022-10-16T01:05:04;15.23;;;6.88;;
35128;SDS011;21301;43.626;10.580;2022-10-16T01:07:40;13.85;;;6.13;;
35128;SDS011;21301;43.626;10.580;2022-10-16T01:18:13;16.08;;;7.30;;
35128;SDS011;21301;43.626;10.580;2022-10-16T01:20:54;14.23;;;7.50;;
35128;SDS011;21301;43.626;10.580;2022-10-16T01:23:47;13.23;;;7.20;;
35128;SDS011;21301;43.626;10.580;2022-10-16T01:31:31;11.70;;;7.72;;
35128;SDS011;21301;43.626;10.580;2022-10-16T01:34:04;14.38;;;7.43;;
35128;SDS011;21301;43.626;10.580;2022-10-16T01:36:36;12.82;;;7.43;;
35128;SDS011;21301;43.626;10.580;2022-10-16T01:39:05;11.35;;;6.50;;
35128;SDS011;21301;43.626;10.580;2022-10-16T01:41:35;11.30;;;6.72;;
35128;SDS011;21301;43.626;10.580;2022-10-16T01:44:08;13.48;;;6.55;;
35128;SDS011;21301;43.626;10.580;2022-10-16T01:46:40;12.00;;;6.90;;
35128;SDS011;21301;43.626;10.580;2022-10-16T01:49:08;14.20;;;8.27;;
35128;SDS011;21301;43.626;10.580;2022-10-16T01:51:35;13.27;;;6.95;;
35128;SDS011;21301;43.626;10.580;2022-10-16T01:54:02;11.27;;;6.68;;
35128;SDS011;21301;43.626;10.580;2022-10-16T01:56:30;18.63;;;8.73;;
35128;SDS011;21301;43.626;10.580;2022-10-16T01:59:02;19.10;;;8.82;;
35128;SDS011;21301;43.626;10.580;2022-10-16T02:01:39;12.45;;;7.38;;
35128;SDS011;21301;43.626;10.580;2022-10-16T02:04:09;12.50;;;7.13;;
35128;SDS011;21301;43.626;10.580;2022-10-16T02:06:42;14.43;;;7.63;;
35128;SDS011;21301;43.626;10.580;2022-10-16T02:09:08;11.65;;;6.60;;
35128;SDS011;21301;43.626;10.580;2022-10-16T02:11:34;13.45;;;7.20;;
35128;SDS011;21301;43.626;10.580;2022-10-16T02:14:06;13.02;;;7.47;;
35128;SDS011;21301;43.626;10.580;2022-10-16T02:16:39;12.30;;;7.82;;
35128;SDS011;21301;43.626;10.580;2022-10-16T02:19:10;15.07;;;7.97;;
35128;SDS011;21301;43.626;10.580;2022-10-16T02:26:52;15.70;;;6.47;;
35128;SDS011;21301;43.626;10.580;2022-10-16T02:29:27;11.43;;;7.65;;
35128;SDS011;21301;43.626;10.580;2022-10-16T02:31:55;9.68;;;6.63;;
35128;SDS011;21301;43.626;10.580;2022-10-16T02:34:25;24.83;;;8.10;;
35128;SDS011;21301;43.626;10.580;2022-10-16T02:36:54;12.90;;;7.28;;
35128;SDS011;21301;43.626;10.580;2022-10-16T02:39:21;15.75;;;7.68;;
35128;SDS011;21301;43.626;10.580;2022-10-16T02:41:47;10.43;;;7.18;;
35128;SDS011;21301;43.626;10.580;2022-10-16T02:44:13;12.35;;;7.32;;
35128;SDS011;21301;43.626;10.580;2022-10-16T02:46:39;16.77;;;7.25;;
35128;SDS011;21301;43.626;10.580;2022-10-16T02:49:05;13.48;;;7.75;;
35128;SDS011;21301;43.626;10.580;2022-10-16T02:51:30;12.63;;;7.47;;
35128;SDS011;21301;43.626;10.580;2022-10-16T02:53:56;16.55;;;7.82;;
35128;SDS011;21301;43.626;10.580;2022-10-16T02:56:22;15.23;;;7.25;;
35128;SDS011;21301;43.626;10.580;2022-10-16T02:58:48;12.30;;;7.03;;
35128;SDS011;21301;43.626;10.580;2022-10-16T03:01:14;15.63;;;7.70;;
35128;SDS011;21301;43.626;10.580;2022-10-16T03:03:41;12.77;;;6.70;;
35128;SDS011;21301;43.626;10.580;2022-10-16T03:06:07;13.75;;;7.43;;
35128;SDS011;21301;43.626;10.580;2022-10-16T03:08:34;12.10;;;7.35;;
35128;SDS011;21301;43.626;10.580;2022-10-16T03:10:59;10.90;;;7.00;;
35128;SDS011;21301;43.626;10.580;2022-10-16T03:13:27;13.63;;;7.63;;
35128;SDS011;21301;43.626;10.580;2022-10-16T03:15:53;16.38;;;7.38;;
35128;SDS011;21301;43.626;10.580;2022-10-16T03:18:18;11.32;;;6.80;;
35128;SDS011;21301;43.626;10.580;2022-10-16T03:20:44;13.40;;;7.10;;
35128;SDS011;21301;43.626;10.580;2022-10-16T03:23:10;16.58;;;8.13;;
35128;SDS011;21301;43.626;10.580;2022-10-16T03:25:36;12.10;;;6.63;;
35128;SDS011;21301;43.626;10.580;2022-10-16T03:28:02;16.08;;;8.63;;
35128;SDS011;21301;43.626;10.580;2022-10-16T03:30:28;10.35;;;6.65;;
35128;SDS011;21301;43.626;10.580;2022-10-16T03:32:54;11.98;;;6.47;;
35128;SDS011;21301;43.626;10.580;2022-10-16T03:35:20;11.77;;;5.38;;
35128;SDS011;21301;43.626;10.580;2022-10-16T03:37:46;10.38;;;6.47;;
35128;SDS011;21301;43.626;10.580;2022-10-16T03:40:12;12.80;;;6.85;;
35128;SDS011;21301;43.626;10.580;2022-10-16T03:42:38;12.75;;;5.65;;
35128;SDS011;21301;43.626;10.580;2022-10-16T03:45:04;11.05;;;6.85;;
35128;SDS011;21301;43.626;10.580;2022-10-16T03:47:30;9.88;;;6.75;;
35128;SDS011;21301;43.626;10.580;2022-10-16T03:49:58;18.38;;;8.75;;
35128;SDS011;21301;43.626;10.580;2022-10-16T03:52:24;15.85;;;10.38;;
35128;SDS011;21301;43.626;10.580;2022-10-16T03:54:50;14.93;;;9.07;;
35128;SDS011;21301;43.626;10.580;2022-10-16T03:57:16;14.02;;;9.88;;
35128;SDS011;21301;43.626;10.580;2022-10-16T03:59:42;15.57;;;10.35;;
35128;SDS011;21301;43.626;10.580;2022-10-16T04:02:08;19.48;;;11.20;;
35128;SDS011;21301;43.626;10.580;2022-10-16T04:04:34;16.52;;;10.68;;
35128;SDS011;21301;43.626;10.580;2022-10-16T04:07:00;22.63;;;11.27;;
35128;SDS011;21301;43.626;10.580;2022-10-16T04:09:25;18.10;;;11.50;;
35128;SDS011;21301;43.626;10.580;2022-10-16T04:11:51;22.33;;;10.85;;
35128;SDS011;21301;43.626;10.580;2022-10-16T04:14:17;22.73;;;12.60;;
35128;SDS011;21301;43.626;10.580;2022-10-16T04:16:43;21.00;;;12.15;;
35128;SDS011;21301;43.626;10.580;2022-10-16T04:19:09;18.45;;;11.45;;
35128;SDS011;21301;43.626;10.580;2022-10-16T04:21:36;19.92;;;10.52;;
35128;SDS011;21301;43.626;10.580;2022-10-16T04:24:02;16.70;;;11.63;;
35128;SDS011;21301;43.626;10.580;2022-10-16T04:26:28;18.83;;;10.50;;
35128;SDS011;21301;43.626;10.580;2022-10-16T04:28:55;18.58;;;10.65;;
35128;SDS011;21301;43.626;10.580;2022-10-16T04:31:20;16.08;;;10.38;;
35128;SDS011;21301;43.626;10.580;2022-10-16T04:33:46;17.10;;;11.75;;
35128;SDS011;21301;43.626;10.580;2022-10-16T04:36:12;16.77;;;11.00;;
35128;SDS011;21301;43.626;10.580;2022-10-16T04:38:38;18.77;;;11.07;;
35128;SDS011;21301;43.626;10.580;2022-10-16T04:41:05;16.50;;;11.18;;
35128;SDS011;21301;43.626;10.580;2022-10-16T04:43:32;20.70;;;10.65;;
35128;SDS011;21301;43.626;10.580;2022-10-16T04:45:58;15.30;;;10.50;;
35128;SDS011;21301;43.626;10.580;2022-10-16T04:48:24;22.05;;;12.85;;
35128;SDS011;21301;43.626;10.580;2022-10-16T04:50:50;16.75;;;10.23;;
35128;SDS011;21301;43.626;10.580;2022-10-16T04:53:16;16.88;;;11.65;;
35128;SDS011;21301;43.626;10.580;2022-10-16T04:55:42;17.80;;;10.85;;
35128;SDS011;21301;43.626;10.580;2022-10-16T04:58:08;20.00;;;9.88;;
35128;SDS011;21301;43.626;10.580;2022-10-16T05:00:34;19.08;;;10.50;;
35128;SDS011;21301;43.626;10.580;2022-10-16T05:03:00;18.52;;;10.52;;
35128;SDS011;21301;43.626;10.580;2022-10-16T05:05:27;18.35;;;11.10;;
35128;SDS011;21301;43.626;10.580;2022-10-16T05:07:53;18.60;;;11.20;;
35128;SDS011;21301;43.626;10.580;2022-10-16T05:10:19;15.57;;;9.98;;
35128;SDS011;21301;43.626;10.580;2022-10-16T05:12:46;14.60;;;10.48;;
35128;SDS011;21301;43.626;10.580;2022-10-16T05:15:12;19.00;;;10.75;;
35128;SDS011;21301;43.626;10.580;2022-10-16T05:17:37;13.48;;;9.43;;
35128;SDS011;21301;43.626;10.580;2022-10-16T05:20:03;15.73;;;10.68;;
35128;SDS011;21301;43.626;10.580;2022-10-16T05:22:29;15.27;;;9.65;;
35128;SDS011;21301;43.626;10.580;2022-10-16T05:24:55;14.68;;;9.57;;
35128;SDS011;21301;43.626;10.580;2022-10-16T05:27:21;15.95;;;10.57;;
35128;SDS011;21301;43.626;10.580;2022-10-16T05:29:47;17.15;;;10.73;;
35128;SDS011;21301;43.626;10.580;2022-10-16T05:32:17;15.65;;;9.52;;
35128;SDS011;21301;43.626;10.580;2022-10-16T05:34:43;14.73;;;9.90;;
35128;SDS011;21301;43.626;10.580;2022-10-16T05:37:10;13.93;;;9.70;;
35128;SDS011;21301;43.626;10.580;2022-10-16T05:39:37;14.10;;;9.15;;
35128;SDS011;21301;43.626;10.580;2022-10-16T05:42:04;13.15;;;9.23;;
35128;SDS011;21301;43.626;10.580;2022-10-16T05:44:32;17.85;;;10.00;;
35128;SDS011;21301;43.626;10.580;2022-10-16T05:46:58;13.00;;;9.18;;
35128;SDS011;21301;43.626;10.580;2022-10-16T05:49:24;16.02;;;11.20;;
35128;SDS011;21301;43.626;10.580;2022-10-16T05:51:50;20.92;;;12.63;;
35128;SDS011;21301;43.626;10.580;2022-10-16T05:54:16;18.42;;;12.32;;
35128;SDS011;21301;43.626;10.580;2022-10-16T05:56:42;19.38;;;13.20;;
35128;SDS011;21301;43.626;10.580;2022-10-16T05:59:08;19.80;;;13.43;;
35128;SDS011;21301;43.626;10.580;2022-10-16T06:01:33;19.10;;;12.48;;
35128;SDS011;21301;43.626;10.580;2022-10-16T06:04:00;17.30;;;12.85;;
35128;SDS011;21301;43.626;10.580;2022-10-16T06:06:26;22.10;;;12.38;;
35128;SDS011;21301;43.626;10.580;2022-10-16T06:08:53;21.05;;;11.88;;
35128;SDS011;21301;43.626;10.580;2022-10-16T06:11:24;19.15;;;13.10;;
35128;SDS011;21301;43.626;10.580;2022-10-16T06:13:55;17.63;;;11.88;;
35128;SDS011;21301;43.626;10.580;2022-10-16T06:16:22;20.10;;;12.52;;
35128;SDS011;21301;43.626;10.580;2022-10-16T06:18:53;17.90;;;12.15;;
35128;SDS011;21301;43.626;10.580;2022-10-16T06:21:21;17.65;;;12.77;;
35128;SDS011;21301;43.626;10.580;2022-10-16T06:23:52;19.58;;;12.50;;
35128;SDS011;21301;43.626;10.580;2022-10-16T06:26:19;17.90;;;12.05;;
35128;SDS011;21301;43.626;10.580;2022-10-16T06:28:47;17.42;;;10.48;;
35128;SDS011;21301;43.626;10.580;2022-10-16T06:31:14;18.30;;;11.90;;
35128;SDS011;21301;43.626;10.580;2022-10-16T06:33:40;14.60;;;10.50;;
35128;SDS011;21301;43.626;10.580;2022-10-16T06:36:07;22.33;;;11.98;;
35128;SDS011;21301;43.626;10.580;2022-10-16T06:38:34;17.77;;;11.10;;
35128;SDS011;21301;43.626;10.580;2022-10-16T06:41:01;15.50;;;10.45;;
35128;SDS011;21301;43.626;10.580;2022-10-16T06:43:28;17.63;;;11.00;;
35128;SDS011;21301;43.626;10.580;2022-10-16T06:45:57;20.02;;;10.40;;
35128;SDS011;21301;43.626;10.580;2022-10-16T06:48:24;21.30;;;10.55;;
35128;SDS011;21301;43.626;10.580;2022-10-16T06:53:31;18.15;;;10.85;;
35128;SDS011;21301;43.626;10.580;2022-10-16T06:56:06;19.92;;;10.77;;
35128;SDS011;21301;43.626;10.580;2022-10-16T06:58:36;18.55;;;10.73;;
35128;SDS011;21301;43.626;10.580;2022-10-16T07:01:02;16.20;;;10.10;;
35128;SDS011;21301;43.626;10.580;2022-10-16T07:03:28;16.58;;;9.90;;
35128;SDS011;21301;43.626;10.580;2022-10-16T07:05:54;21.20;;;11.85;;
35128;SDS011;21301;43.626;10.580;2022-10-16T07:08:20;26.52;;;14.45;;
35128;SDS011;21301;43.626;10.580;2022-10-16T07:10:46;21.27;;;14.43;;
35128;SDS011;21301;43.626;10.580;2022-10-16T07:13:11;24.58;;;15.27;;
35128;SDS011;21301;43.626;10.580;2022-10-16T07:15:40;20.50;;;14.70;;
35128;SDS011;21301;43.626;10.580;2022-10-16T07:18:06;19.55;;;14.18;;
35128;SDS011;21301;43.626;10.580;2022-10-16T07:20:33;21.52;;;14.38;;
35128;SDS011;21301;43.626;10.580;2022-10-16T07:22:59;21.65;;;14.98;;
35128;SDS011;21301;43.626;10.580;2022-10-16T07:25:24;20.35;;;15.10;;
35128;SDS011;21301;43.626;10.580;2022-10-16T07:27:50;21.92;;;14.68;;
35128;SDS011;21301;43.626;10.580;2022-10-16T07:30:16;24.17;;;15.95;;
35128;SDS011;21301;43.626;10.580;2022-10-16T07:32:42;23.08;;;13.65;;
35128;SDS011;21301;43.626;10.580;2022-10-16T07:35:08;19.67;;;14.18;;
35128;SDS011;21301;43.626;10.580;2022-10-16T07:37:33;20.25;;;14.10;;
35128;SDS011;21301;43.626;10.580;2022-10-16T07:39:59;24.83;;;14.00;;
35128;SDS011;21301;43.626;10.580;2022-10-16T07:42:26;25.48;;;14.10;;
35128;SDS011;21301;43.626;10.580;2022-10-16T07:44:52;21.67;;;14.07;;
35128;SDS011;21301;43.626;10.580;2022-10-16T07:47:18;16.77;;;12.43;;
35128;SDS011;21301;43.626;10.580;2022-10-16T07:49:44;19.02;;;12.18;;
35128;SDS011;21301;43.626;10.580;2022-10-16T07:52:09;17.88;;;11.55;;
35128;SDS011;21301;43.626;10.580;2022-10-16T07:54:35;14.10;;;11.25;;
35128;SDS011;21301;43.626;10.580;2022-10-16T07:57:01;15.50;;;10.57;;
35128;SDS011;21301;43.626;10.580;2022-10-16T07:59:27;23.20;;;11.40;;
35128;SDS011;21301;43.626;10.580;2022-10-16T08:01:53;17.10;;;10.90;;
35128;SDS011;21301;43.626;10.580;2022-10-16T08:04:18;16.42;;;10.93;;
35128;SDS011;21301;43.626;10.580;2022-10-16T08:06:44;19.42;;;12.18;;
35128;SDS011;21301;43.626;10.580;2022-10-16T08:09:10;20.40;;;12.00;;
35128;SDS011;21301;43.626;10.580;2022-10-16T08:11:36;17.08;;;12.23;;
35128;SDS011;21301;43.626;10.580;2022-10-16T08:14:01;20.25;;;11.23;;
35128;SDS011;21301;43.626;10.580;2022-10-16T08:16:27;20.92;;;11.30;;
35128;SDS011;21301;43.626;10.580;2022-10-16T08:18:53;19.70;;;10.23;;
35128;SDS011;21301;43.626;10.580;2022-10-16T08:21:20;12.02;;;8.52;;
35128;SDS011;21301;43.626;10.580;2022-10-16T08:23:48;18.38;;;9.30;;
35128;SDS011;21301;43.626;10.580;2022-10-16T08:26:15;13.75;;;8.02;;
35128;SDS011;21301;43.626;10.580;2022-10-16T08:28:40;13.55;;;7.68;;
35128;SDS011;21301;43.626;10.580;2022-10-16T08:31:10;13.95;;;8.55;;
35128;SDS011;21301;43.626;10.580;2022-10-16T08:33:38;12.13;;;7.22;;
35128;SDS011;21301;43.626;10.580;2022-10-16T08:36:06;14.25;;;8.18;;
35128;SDS011;21301;43.626;10.580;2022-10-16T08:38:32;12.90;;;8.07;;
35128;SDS011;21301;43.626;10.580;2022-10-16T08:43:54;12.52;;;7.93;;
35128;SDS011;21301;43.626;10.580;2022-10-16T08:49:36;15.00;;;8.03;;
35128;SDS011;21301;43.626;10.580;2022-10-16T08:52:07;20.42;;;8.98;;
35128;SDS011;21301;43.626;10.580;2022-10-16T08:54:39;15.88;;;8.63;;
35128;SDS011;21301;43.626;10.580;2022-10-16T08:57:19;14.45;;;7.28;;
35128;SDS011;21301;43.626;10.580;2022-10-16T08:59:46;15.02;;;8.80;;
35128;SDS011;21301;43.626;10.580;2022-10-16T09:02:55;17.33;;;7.65;;
35128;SDS011;21301;43.626;10.580;2022-10-16T09:08:10;16.45;;;9.07;;
35128;SDS011;21301;43.626;10.580;2022-10-16T09:13:40;11.10;;;6.90;;
35128;SDS011;21301;43.626;10.580;2022-10-16T09:16:35;14.43;;;7.68;;
35128;SDS011;21301;43.626;10.580;2022-10-16T09:19:21;14.32;;;7.32;;
35128;SDS011;21301;43.626;10.580;2022-10-16T09:21:54;13.15;;;8.45;;
35128;SDS011;21301;43.626;10.580;2022-10-16T09:24:22;14.60;;;7.05;;
35128;SDS011;21301;43.626;10.580;2022-10-16T09:26:50;10.40;;;6.18;;
35128;SDS011;21301;43.626;10.580;2022-10-16T09:29:17;12.07;;;6.53;;
35128;SDS011;21301;43.626;10.580;2022-10-16T09:31:45;10.80;;;6.88;;
35128;SDS011;21301;43.626;10.580;2022-10-16T09:34:17;13.68;;;6.63;;
35128;SDS011;21301;43.626;10.580;2022-10-16T09:36:57;12.35;;;6.85;;
35128;SDS011;21301;43.626;10.580;2022-10-16T09:39:24;12.95;;;5.97;;
35128;SDS011;21301;43.626;10.580;2022-10-16T09:41:50;13.77;;;7.55;;
35128;SDS011;21301;43.626;10.580;2022-10-16T09:44:37;12.57;;;6.45;;
35128;SDS011;21301;43.626;10.580;2022-10-16T09:47:04;13.98;;;6.45;;
35128;SDS011;21301;43.626;10.580;2022-10-16T09:49:36;15.23;;;7.40;;
35128;SDS011;21301;43.626;10.580;2022-10-16T09:52:05;9.88;;;6.50;;
35128;SDS011;21301;43.626;10.580;2022-10-16T09:54:53;13.88;;;7.30;;
35128;SDS011;21301;43.626;10.580;2022-10-16T09:57:19;9.45;;;5.45;;
35128;SDS011;21301;43.626;10.580;2022-10-16T09:59:49;11.02;;;7.15;;
35128;SDS011;21301;43.626;10.580;2022-10-16T10:04:59;11.23;;;6.43;;
35128;SDS011;21301;43.626;10.580;2022-10-16T10:07:32;13.25;;;6.20;;
35128;SDS011;21301;43.626;10.580;2022-10-16T10:10:03;13.43;;;6.22;;
35128;SDS011;21301;43.626;10.580;2022-10-16T10:12:30;11.68;;;6.45;;
35128;SDS011;21301;43.626;10.580;2022-10-16T10:15:12;10.25;;;5.68;;
35128;SDS011;21301;43.626;10.580;2022-10-16T10:20:36;11.43;;;5.43;;
35128;SDS011;21301;43.626;10.580;2022-10-16T10:23:19;9.73;;;5.35;;
35128;SDS011;21301;43.626;10.580;2022-10-16T10:31:34;9.02;;;4.68;;
35128;SDS011;21301;43.626;10.580;2022-10-16T10:36:40;9.65;;;5.07;;
35128;SDS011;21301;43.626;10.580;2022-10-16T10:39:15;9.52;;;5.13;;
35128;SDS011;21301;43.626;10.580;2022-10-16T11:01:56;13.50;;;9.95;;
35128;SDS011;21301;43.626;10.580;2022-10-16T11:10:02;22.75;;;13.82;;
35128;SDS011;21301;43.626;10.580;2022-10-16T11:15:54;18.92;;;10.05;;
35128;SDS011;21301;43.626;10.580;2022-10-16T11:21:22;10.75;;;7.43;;
35128;SDS011;21301;43.626;10.580;2022-10-16T11:23:53;19.88;;;11.30;;
35128;SDS011;21301;43.626;10.580;2022-10-16T11:29:50;17.23;;;9.23;;
35128;SDS011;21301;43.626;10.580;2022-10-16T11:35:42;11.45;;;7.30;;
35128;SDS011;21301;43.626;10.580;2022-10-16T11:38:33;12.90;;;8.68;;
35128;SDS011;21301;43.626;10.580;2022-10-16T11:41:37;12.05;;;5.50;;
35128;SDS011;21301;43.626;10.580;2022-10-16T11:46:48;13.05;;;6.57;;
35128;SDS011;21301;43.626;10.580;2022-10-16T11:49:24;9.40;;;4.05;;
35128;SDS011;21301;43.626;10.580;2022-10-16T11:54:49;8.70;;;4.35;;
35128;SDS011;21301;43.626;10.580;2022-10-16T12:05:06;6.65;;;3.92;;
35128;SDS011;21301;43.626;10.580;2022-10-16T12:10:35;12.98;;;6.03;;
35128;SDS011;21301;43.626;10.580;2022-10-16T12:13:04;16.13;;;5.05;;
35128;SDS011;21301;43.626;10.580;2022-10-16T12:15:50;6.63;;;3.92;;
35128;SDS011;21301;43.626;10.580;2022-10-16T12:18:23;9.18;;;5.13;;
35128;SDS011;21301;43.626;10.580;2022-10-16T12:20:59;8.57;;;4.45;;
35128;SDS011;21301;43.626;10.580;2022-10-16T12:23:33;9.43;;;4.07;;
35128;SDS011;21301;43.626;10.580;2022-10-16T12:28:52;8.50;;;3.67;;
35128;SDS011;21301;43.626;10.580;2022-10-16T12:31:18;7.15;;;3.75;;
35128;SDS011;21301;43.626;10.580;2022-10-16T12:34:01;10.30;;;3.00;;
35128;SDS011;21301;43.626;10.580;2022-10-16T12:36:34;10.45;;;3.53;;
35128;SDS011;21301;43.626;10.580;2022-10-16T12:39:00;6.45;;;3.28;;
35128;SDS011;21301;43.626;10.580;2022-10-16T12:41:31;7.85;;;3.58;;
35128;SDS011;21301;43.626;10.580;2022-10-16T12:43:59;5.72;;;2.83;;
35128;SDS011;21301;43.626;10.580;2022-10-16T12:49:19;7.30;;;3.33;;
35128;SDS011;21301;43.626;10.580;2022-10-16T12:54:49;6.90;;;2.67;;
35128;SDS011;21301;43.626;10.580;2022-10-16T13:02:48;10.50;;;3.83;;
35128;SDS011;21301;43.626;10.580;2022-10-16T13:21:36;4.88;;;2.42;;
35128;SDS011;21301;43.626;10.580;2022-10-16T13:29:36;6.43;;;3.50;;
35128;SDS011;21301;43.626;10.580;2022-10-16T13:32:10;9.00;;;3.97;;
35128;SDS011;21301;43.626;10.580;2022-10-16T13:34:47;7.63;;;3.42;;
35128;SDS011;21301;43.626;10.580;2022-10-16T13:37:24;11.52;;;3.65;;
35128;SDS011;21301;43.626;10.580;2022-10-16T13:39:50;7.15;;;3.58;;
35128;SDS011;21301;43.626;10.580;2022-10-16T13:44:54;5.45;;;3.45;;
35128;SDS011;21301;43.626;10.580;2022-10-16T13:47:25;8.57;;;4.38;;
35128;SDS011;21301;43.626;10.580;2022-10-16T13:50:08;8.18;;;3.42;;
35128;SDS011;21301;43.626;10.580;2022-10-16T13:52:38;6.20;;;3.45;;
35128;SDS011;21301;43.626;10.580;2022-10-16T13:55:15;12.18;;;3.75;;
35128;SDS011;21301;43.626;10.580;2022-10-16T13:57:43;6.03;;;3.13;;
35128;SDS011;21301;43.626;10.580;2022-10-16T14:00:19;11.25;;;4.22;;
35128;SDS011;21301;43.626;10.580;2022-10-16T14:02:45;6.32;;;4.18;;
35128;SDS011;21301;43.626;10.580;2022-10-16T14:05:18;7.15;;;2.78;;
35128;SDS011;21301;43.626;10.580;2022-10-16T14:07:44;8.77;;;3.47;;
35128;SDS011;21301;43.626;10.580;2022-10-16T14:10:50;4.85;;;2.65;;
35128;SDS011;21301;43.626;10.580;2022-10-16T14:13:14;7.72;;;2.80;;
35128;SDS011;21301;43.626;10.580;2022-10-16T14:15:46;8.60;;;3.28;;
35128;SDS011;21301;43.626;10.580;2022-10-16T14:18:24;7.55;;;2.97;;
35128;SDS011;21301;43.626;10.580;2022-10-16T14:20:52;6.55;;;2.80;;
35128;SDS011;21301;43.626;10.580;2022-10-16T14:23:23;7.72;;;2.70;;
35128;SDS011;21301;43.626;10.580;2022-10-16T14:29:03;11.20;;;3.45;;
35128;SDS011;21301;43.626;10.580;2022-10-16T14:31:40;7.95;;;2.85;;
35128;SDS011;21301;43.626;10.580;2022-10-16T14:34:22;5.07;;;2.70;;
35128;SDS011;21301;43.626;10.580;2022-10-16T14:39:19;6.50;;;3.47;;
35128;SDS011;21301;43.626;10.580;2022-10-16T14:41:48;7.72;;;3.50;;
35128;SDS011;21301;43.626;10.580;2022-10-16T14:44:17;8.32;;;3.88;;
35128;SDS011;21301;43.626;10.580;2022-10-16T14:46:44;9.65;;;4.80;;
35128;SDS011;21301;43.626;10.580;2022-10-16T14:51:40;6.75;;;3.90;;
35128;SDS011;21301;43.626;10.580;2022-10-16T14:54:08;7.78;;;3.58;;
35128;SDS011;21301;43.626;10.580;2022-10-16T14:56:41;8.18;;;3.60;;
35128;SDS011;21301;43.626;10.580;2022-10-16T14:59:14;8.20;;;4.18;;
35128;SDS011;21301;43.626;10.580;2022-10-16T15:01:54;10.18;;;4.10;;
35128;SDS011;21301;43.626;10.580;2022-10-16T15:04:20;8.50;;;4.55;;
35128;SDS011;21301;43.626;10.580;2022-10-16T15:06:46;9.07;;;4.13;;
35128;SDS011;21301;43.626;10.580;2022-10-16T15:09:11;6.47;;;4.07;;
35128;SDS011;21301;43.626;10.580;2022-10-16T15:11:37;8.50;;;3.60;;
35128;SDS011;21301;43.626;10.580;2022-10-16T15:14:04;8.43;;;4.55;;
35128;SDS011;21301;43.626;10.580;2022-10-16T15:16:30;6.93;;;4.03;;
35128;SDS011;21301;43.626;10.580;2022-10-16T15:18:56;9.90;;;3.90;;
35128;SDS011;21301;43.626;10.580;2022-10-16T15:21:27;8.38;;;4.25;;
35128;SDS011;21301;43.626;10.580;2022-10-16T15:23:55;9.30;;;3.78;;
35128;SDS011;21301;43.626;10.580;2022-10-16T15:26:23;7.80;;;5.05;;
35128;SDS011;21301;43.626;10.580;2022-10-16T15:28:50;10.88;;;4.32;;
35128;SDS011;21301;43.626;10.580;2022-10-16T15:31:15;9.20;;;4.85;;
35128;SDS011;21301;43.626;10.580;2022-10-16T15:33:41;8.95;;;3.95;;
35128;SDS011;21301;43.626;10.580;2022-10-16T15:36:07;8.02;;;4.53;;
35128;SDS011;21301;43.626;10.580;2022-10-16T15:38:33;7.47;;;3.45;;
35128;SDS011;21301;43.626;10.580;2022-10-16T15:40:59;8.40;;;4.68;;
35128;SDS011;21301;43.626;10.580;2022-10-16T15:43:24;7.60;;;4.13;;
35128;SDS011;21301;43.626;10.580;2022-10-16T15:45:58;8.27;;;4.65;;
35128;SDS011;21301;43.626;10.580;2022-10-16T15:48:29;8.60;;;4.45;;
35128;SDS011;21301;43.626;10.580;2022-10-16T15:50:55;10.73;;;5.25;;
35128;SDS011;21301;43.626;10.580;2022-10-16T15:53:21;11.65;;;4.82;;
35128;SDS011;21301;43.626;10.580;2022-10-16T15:55:47;9.07;;;4.75;;
35128;SDS011;21301;43.626;10.580;2022-10-16T15:58:14;8.02;;;3.80;;
35128;SDS011;21301;43.626;10.580;2022-10-16T16:00:40;7.05;;;3.97;;
35128;SDS011;21301;43.626;10.580;2022-10-16T16:03:05;7.82;;;4.53;;
35128;SDS011;21301;43.626;10.580;2022-10-16T16:05:31;10.20;;;4.00;;
35128;SDS011;21301;43.626;10.580;2022-10-16T16:07:58;12.25;;;4.40;;
35128;SDS011;21301;43.626;10.580;2022-10-16T16:10:24;9.57;;;4.55;;
35128;SDS011;21301;43.626;10.580;2022-10-16T16:12:50;8.95;;;4.20;;
35128;SDS011;21301;43.626;10.580;2022-10-16T16:15:21;8.73;;;4.10;;
35128;SDS011;21301;43.626;10.580;2022-10-16T16:17:47;8.55;;;3.67;;
35128;SDS011;21301;43.626;10.580;2022-10-16T16:20:14;53.50;;;26.85;;
35128;SDS011;21301;43.626;10.580;2022-10-16T16:22:40;10.52;;;4.25;;
35128;SDS011;21301;43.626;10.580;2022-10-16T16:25:06;10.15;;;4.07;;
35128;SDS011;21301;43.626;10.580;2022-10-16T16:27:32;11.32;;;4.10;;
35128;SDS011;21301;43.626;10.580;2022-10-16T16:30:00;6.32;;;3.70;;
35128;SDS011;21301;43.626;10.580;2022-10-16T16:32:28;9.38;;;4.25;;
35128;SDS011;21301;43.626;10.580;2022-10-16T16:34:54;7.50;;;3.55;;
35128;SDS011;21301;43.626;10.580;2022-10-16T16:37:20;6.35;;;3.50;;
35128;SDS011;21301;43.626;10.580;2022-10-16T16:39:46;8.52;;;4.10;;
35128;SDS011;21301;43.626;10.580;2022-10-16T16:42:12;6.57;;;3.78;;
35128;SDS011;21301;43.626;10.580;2022-10-16T16:44:37;9.50;;;4.07;;
35128;SDS011;21301;43.626;10.580;2022-10-16T16:47:03;8.27;;;3.90;;
35128;SDS011;21301;43.626;10.580;2022-10-16T16:49:30;13.68;;;5.35;;
35128;SDS011;21301;43.626;10.580;2022-10-16T16:51:56;10.20;;;4.75;;
35128;SDS011;21301;43.626;10.580;2022-10-16T16:54:21;12.20;;;4.50;;
35128;SDS011;21301;43.626;10.580;2022-10-16T16:56:47;9.57;;;4.90;;
35128;SDS011;21301;43.626;10.580;2022-10-16T16:59:14;18.00;;;5.10;;